Time;durP1;ratioP1;P1;durP2;ratioP2;P2;SDS_P1;SDS_P2;PMS_P1;PMS_P2;Temp;Humidity;BMP_temperature;BMP_pressure;BME280_temperature;BME280_humidity;BME280_pressure;Samples;Min_cycle;Max_cycle;Signal;HPM_P1;HPM_P2
2023/01/08 00:01:55;;;;;;;;;11.00;8.00;;;;;;;;114761;1206;25304;-61
2023/01/08 00:04:24;;;;;;;;;11.00;8.00;;;;;;;;114847;1208;25571;-61
2023/01/08 00:06:52;;;;;;;;;11.00;9.00;;;;;;;;114651;1207;25138;-60
2023/01/08 00:09:21;;;;;;;;;8.00;6.00;;;;;;;;114687;1208;24799;-61
2023/01/08 00:11:49;;;;;;;;;10.50;10.50;;;;;;;;114762;1204;25551;-61
2023/01/08 00:14:18;;;;;;;;;9.00;8.00;;;;;;;;114742;1208;25219;-60
2023/01/08 00:16:47;;;;;;;;;13.00;12.00;;;;;;;;114804;1206;25283;-59
2023/01/08 00:19:15;;;;;;;;;10.50;9.00;;;;;;;;114791;1206;26060;-60
2023/01/08 00:21:44;;;;;;;;;10.67;9.33;;;;;;;;114726;1206;25174;-59
2023/01/08 00:24:12;;;;;;;;;9.50;8.50;;;;;;;;114768;1203;25558;-59
2023/01/08 00:26:41;;;;;;;;;13.50;9.50;;;;;;;;114775;1200;25526;-59
2023/01/08 00:29:09;;;;;;;;;12.50;10.50;;;;;;;;114836;1197;24839;-60
2023/01/08 00:31:37;;;;;;;;;10.00;8.00;;;;;;;;114809;1206;25097;-60
2023/01/08 00:34:06;;;;;;;;;11.00;8.00;;;;;;;;114815;1207;25661;-60
2023/01/08 00:36:35;;;;;;;;;10.00;9.00;;;;;;;;114779;1208;25173;-59
2023/01/08 00:39:04;;;;;;;;;12.50;8.50;;;;;;;;114812;1200;25512;-59
2023/01/08 00:41:32;;;;;;;;;13.50;9.50;;;;;;;;114802;1207;25471;-60
2023/01/08 00:44:01;;;;;;;;;10.33;8.00;;;;;;;;114769;1200;25507;-60
2023/01/08 00:46:29;;;;;;;;;11.50;9.50;;;;;;;;114815;1199;25238;-60
2023/01/08 00:48:57;;;;;;;;;9.50;7.50;;;;;;;;114857;1208;25142;-60
2023/01/08 00:51:26;;;;;;;;;11.75;8.50;;;;;;;;114963;1200;25117;-59
2023/01/08 00:53:54;;;;;;;;;11.00;8.67;;;;;;;;114924;1200;25004;-60
2023/01/08 00:56:23;;;;;;;;;9.67;7.33;;;;;;;;114979;1199;25521;-60
2023/01/08 00:58:51;;;;;;;;;10.00;9.00;;;;;;;;114915;1193;25537;-59
2023/01/08 01:01:20;;;;;;;;;9.00;7.00;;;;;;;;114914;1203;24864;-60
2023/01/08 01:03:49;;;;;;;;;13.00;9.00;;;;;;;;114920;1203;24960;-59
2023/01/08 01:06:18;;;;;;;;;7.00;7.00;;;;;;;;114829;1200;25141;-61
2023/01/08 01:08:47;;;;;;;;;9.33;6.33;;;;;;;;114809;1208;25600;-59
2023/01/08 01:11:21;;;;;;;;;12.00;7.50;;;;;;;;114836;1200;24859;-59
2023/01/08 01:13:50;;;;;;;;;11.00;8.00;;;;;;;;114819;1200;25363;-59
2023/01/08 01:16:19;;;;;;;;;7.00;5.00;;;;;;;;114833;1205;24797;-60
2023/01/08 01:18:48;;;;;;;;;7.00;7.00;;;;;;;;114819;1201;25399;-61
2023/01/08 01:21:29;;;;;;;;;10.33;8.33;;;;;;;;114880;1208;25231;-60
2023/01/08 01:24:00;;;;;;;;;9.33;7.67;;;;;;;;114848;1200;25439;-60
2023/01/08 01:26:29;;;;;;;;;11.00;7.00;;;;;;;;114831;1200;25393;-60
2023/01/08 01:28:58;;;;;;;;;12.50;8.00;;;;;;;;114825;1197;25223;-60
2023/01/08 01:31:28;;;;;;;;;8.33;7.33;;;;;;;;114848;1205;25340;-60
2023/01/08 01:33:57;;;;;;;;;9.00;7.00;;;;;;;;114800;1205;25241;-60
2023/01/08 01:36:26;;;;;;;;;8.00;8.00;;;;;;;;114845;1205;24959;-59
2023/01/08 01:38:56;;;;;;;;;10.50;9.50;;;;;;;;114906;1206;25210;-60
2023/01/08 01:41:27;;;;;;;;;10.00;7.00;;;;;;;;114890;1197;24943;-60
2023/01/08 01:44:17;;;;;;;;;7.00;6.67;;;;;;;;114919;1203;24947;-61
2023/01/08 01:46:47;;;;;;;;;7.00;7.00;;;;;;;;114916;1203;25197;-60
2023/01/08 01:49:20;;;;;;;;;10.00;8.50;;;;;;;;114934;1195;24886;-60
2023/01/08 01:51:51;;;;;;;;;7.50;6.50;;;;;;;;114936;1200;24919;-60
2023/01/08 01:54:20;;;;;;;;;6.00;6.00;;;;;;;;114874;1194;24708;-60
2023/01/08 01:56:48;;;;;;;;;11.00;7.00;;;;;;;;114842;1202;25615;-59
2023/01/08 01:59:17;;;;;;;;;13.00;10.00;;;;;;;;114843;1199;25009;-60
2023/01/08 02:01:46;;;;;;;;;7.50;7.00;;;;;;;;114799;1208;25458;-59
2023/01/08 02:04:15;;;;;;;;;8.00;7.00;;;;;;;;114822;1202;24928;-59
2023/01/08 02:07:10;;;;;;;;;9.00;8.25;;;;;;;;114812;1200;25069;-59
2023/01/08 02:09:48;;;;;;;;;12.00;9.00;;;;;;;;114802;1206;24919;-59
2023/01/08 02:12:28;;;;;;;;;12.00;9.00;;;;;;;;114837;1196;24833;-59
2023/01/08 02:15:05;;;;;;;;;9.00;8.00;;;;;;;;114787;1199;25333;-59
2023/01/08 02:17:47;;;;;;;;;9.00;8.00;;;;;;;;114777;1205;25102;-61
2023/01/08 02:20:35;;;;;;;;;6.00;6.00;;;;;;;;114809;1200;25704;-60
2023/01/08 02:23:07;;;;;;;;;10.00;6.25;;;;;;;;114807;1200;25197;-60
2023/01/08 02:25:58;;;;;;;;;10.00;8.00;;;;;;;;114819;1197;24891;-60
2023/01/08 02:28:29;;;;;;;;;9.00;6.00;;;;;;;;114721;1204;25640;-60
2023/01/08 02:30:58;;;;;;;;;6.00;6.00;;;;;;;;114812;1205;25080;-60
2023/01/08 02:33:28;;;;;;;;;8.00;7.00;;;;;;;;114790;1208;25549;-60
2023/01/08 02:36:12;;;;;;;;;7.00;5.00;;;;;;;;114854;1202;24786;-60
2023/01/08 02:38:49;;;;;;;;;6.00;6.00;;;;;;;;114786;1199;25171;-60
2023/01/08 02:41:19;;;;;;;;;7.00;7.00;;;;;;;;114811;1203;25401;-60
2023/01/08 02:43:49;;;;;;;;;6.75;6.75;;;;;;;;114810;1206;25406;-60
2023/01/08 02:46:22;;;;;;;;;6.00;6.00;;;;;;;;114783;1200;25372;-60
2023/01/08 02:48:55;;;;;;;;;8.50;8.50;;;;;;;;114807;1206;24891;-60
2023/01/08 02:51:29;;;;;;;;;6.00;6.00;;;;;;;;114838;1197;25296;-60
2023/01/08 02:54:01;;;;;;;;;12.00;6.25;;;;;;;;114812;1205;25058;-60
2023/01/08 02:56:33;;;;;;;;;6.00;6.00;;;;;;;;114801;1204;25334;-59
2023/01/08 02:59:04;;;;;;;;;7.50;6.00;;;;;;;;114803;1204;25093;-60
2023/01/08 03:01:34;;;;;;;;;7.00;7.00;;;;;;;;114759;1200;25698;-60
2023/01/08 03:04:07;;;;;;;;;8.00;8.00;;;;;;;;114820;1202;25115;-60
2023/01/08 03:06:37;;;;;;;;;4.33;4.33;;;;;;;;114808;1200;24706;-60
2023/01/08 03:09:06;;;;;;;;;6.00;6.00;;;;;;;;114737;1201;25507;-60
2023/01/08 03:11:53;;;;;;;;;3.67;3.67;;;;;;;;114769;1196;25586;-60
2023/01/08 03:14:29;;;;;;;;;3.50;3.00;;;;;;;;114692;1205;24939;-60
2023/01/08 03:17:04;;;;;;;;;8.00;7.00;;;;;;;;114756;1208;25138;-60
2023/01/08 03:19:41;;;;;;;;;8.00;6.50;;;;;;;;114787;1201;25733;-59
2023/01/08 03:22:13;;;;;;;;;7.00;7.00;;;;;;;;114845;1200;26357;-60
2023/01/08 03:24:43;;;;;;;;;9.50;8.50;;;;;;;;114816;1197;25596;-60
2023/01/08 03:27:17;;;;;;;;;8.00;7.00;;;;;;;;114795;1201;26010;-60
2023/01/08 03:29:48;;;;;;;;;8.50;7.50;;;;;;;;114773;1197;24720;-60
2023/01/08 03:32:18;;;;;;;;;6.00;6.00;;;;;;;;114816;1199;25691;-60
2023/01/08 03:34:47;;;;;;;;;8.00;5.50;;;;;;;;114810;1199;24954;-60
2023/01/08 03:37:21;;;;;;;;;7.50;7.00;;;;;;;;114786;1208;25131;-60
2023/01/08 03:40:05;;;;;;;;;8.00;5.00;;;;;;;;114813;1206;25504;-60
2023/01/08 03:42:34;;;;;;;;;6.00;6.00;;;;;;;;114843;1200;25212;-60
2023/01/08 03:45:03;;;;;;;;;5.00;5.00;;;;;;;;114842;1205;25478;-60
2023/01/08 03:47:33;;;;;;;;;8.00;8.00;;;;;;;;114842;1200;25657;-60
2023/01/08 03:50:06;;;;;;;;;7.00;5.00;;;;;;;;114801;1202;24696;-60
2023/01/08 03:52:34;;;;;;;;;9.50;7.00;;;;;;;;114812;1202;25623;-60
2023/01/08 03:55:03;;;;;;;;;7.00;7.00;;;;;;;;114825;1200;25680;-62
2023/01/08 03:57:31;;;;;;;;;7.50;7.50;;;;;;;;114804;1206;25163;-60
2023/01/08 04:00:00;;;;;;;;;7.00;7.00;;;;;;;;114798;1199;24969;-59
2023/01/08 04:02:29;;;;;;;;;8.00;6.00;;;;;;;;114847;1206;24891;-60
2023/01/08 04:04:57;;;;;;;;;9.00;6.67;;;;;;;;114824;1207;25435;-60
2023/01/08 04:07:26;;;;;;;;;6.33;6.33;;;;;;;;114778;1205;25048;-60
2023/01/08 04:09:54;;;;;;;;;9.67;6.67;;;;;;;;114835;1202;25324;-60
2023/01/08 04:12:23;;;;;;;;;5.50;5.50;;;;;;;;114831;1208;24995;-60
2023/01/08 04:14:51;;;;;;;;;7.00;5.00;;;;;;;;114800;1205;26054;-60
2023/01/08 04:17:20;;;;;;;;;9.00;9.00;;;;;;;;114811;1195;25176;-59
2023/01/08 04:19:48;;;;;;;;;4.50;4.50;;;;;;;;114797;1200;25513;-60
2023/01/08 04:22:17;;;;;;;;;6.00;5.00;;;;;;;;114847;1205;25658;-60
2023/01/08 04:24:45;;;;;;;;;6.50;6.50;;;;;;;;114791;1203;24932;-60
2023/01/08 04:27:14;;;;;;;;;5.00;5.00;;;;;;;;114803;1199;26227;-60
2023/01/08 04:29:42;;;;;;;;;6.00;6.00;;;;;;;;114778;1205;26024;-60
2023/01/08 04:32:11;;;;;;;;;6.00;6.00;;;;;;;;114807;1208;25393;-60
2023/01/08 04:34:39;;;;;;;;;7.00;5.50;;;;;;;;114766;1199;25437;-63
2023/01/08 04:37:08;;;;;;;;;8.00;8.00;;;;;;;;114813;1204;25240;-62
2023/01/08 04:39:36;;;;;;;;;7.50;5.00;;;;;;;;114774;1206;25472;-60
2023/01/08 04:42:05;;;;;;;;;7.00;6.00;;;;;;;;114728;1205;25171;-60
2023/01/08 04:44:33;;;;;;;;;8.00;5.50;;;;;;;;114792;1207;25598;-60
2023/01/08 04:47:02;;;;;;;;;4.50;4.50;;;;;;;;114817;1204;25154;-60
2023/01/08 04:49:30;;;;;;;;;9.00;7.00;;;;;;;;114829;1208;24912;-60
2023/01/08 04:51:59;;;;;;;;;7.00;6.00;;;;;;;;114776;1207;24970;-60
2023/01/08 04:54:27;;;;;;;;;6.00;6.00;;;;;;;;114778;1200;25131;-60
2023/01/08 04:56:56;;;;;;;;;6.00;3.00;;;;;;;;114753;1200;25189;-60
2023/01/08 04:59:24;;;;;;;;;7.50;7.50;;;;;;;;114812;1207;24871;-59
2023/01/08 05:01:55;;;;;;;;;7.50;5.00;;;;;;;;114790;1199;25619;-59
2023/01/08 05:04:24;;;;;;;;;6.00;4.00;;;;;;;;114858;1206;25201;-59
2023/01/08 05:06:52;;;;;;;;;5.00;5.00;;;;;;;;114819;1207;24878;-59
2023/01/08 05:09:21;;;;;;;;;9.00;8.00;;;;;;;;114863;1206;25095;-59
2023/01/08 05:11:49;;;;;;;;;9.50;7.00;;;;;;;;114827;1204;25574;-59
2023/01/08 05:14:18;;;;;;;;;6.00;6.00;;;;;;;;114827;1207;25711;-59
2023/01/08 05:16:46;;;;;;;;;6.00;6.00;;;;;;;;114790;1206;25108;-60
2023/01/08 05:19:15;;;;;;;;;5.00;4.00;;;;;;;;114803;1201;24889;-60
2023/01/08 05:21:44;;;;;;;;;4.00;4.00;;;;;;;;114858;1199;25962;-59
2023/01/08 05:24:12;;;;;;;;;5.50;5.50;;;;;;;;114792;1206;25049;-60
2023/01/08 05:26:41;;;;;;;;;6.00;4.33;;;;;;;;114778;1205;24912;-59
2023/01/08 05:29:09;;;;;;;;;4.33;4.33;;;;;;;;114827;1196;24903;-60
2023/01/08 05:31:38;;;;;;;;;6.00;5.00;;;;;;;;114841;1208;25646;-60
2023/01/08 05:34:06;;;;;;;;;7.00;5.00;;;;;;;;114775;1206;25636;-59
2023/01/08 05:36:37;;;;;;;;;4.67;4.00;;;;;;;;114715;1208;24774;-61
2023/01/08 05:39:06;;;;;;;;;7.00;5.00;;;;;;;;114831;1200;24735;-59
2023/01/08 05:41:34;;;;;;;;;4.00;2.00;;;;;;;;114840;1208;25412;-60
2023/01/08 05:44:03;;;;;;;;;8.00;7.00;;;;;;;;114813;1208;25418;-60
2023/01/08 05:46:32;;;;;;;;;6.00;5.00;;;;;;;;114789;1206;25302;-60
2023/01/08 05:49:00;;;;;;;;;8.33;7.00;;;;;;;;114819;1206;25040;-60
2023/01/08 05:51:29;;;;;;;;;7.50;6.00;;;;;;;;114809;1208;25503;-60
2023/01/08 05:53:57;;;;;;;;;4.67;4.67;;;;;;;;114787;1206;25599;-60
2023/01/08 05:56:26;;;;;;;;;6.50;6.50;;;;;;;;114826;1205;25641;-60
2023/01/08 05:58:54;;;;;;;;;6.00;6.00;;;;;;;;114845;1205;24915;-59
2023/01/08 06:01:23;;;;;;;;;5.00;4.00;;;;;;;;114792;1200;25250;-60
2023/01/08 06:03:54;;;;;;;;;7.00;6.00;;;;;;;;114755;1206;25297;-60
2023/01/08 06:06:23;;;;;;;;;8.50;7.00;;;;;;;;114829;1206;25243;-61
2023/01/08 06:08:51;;;;;;;;;6.50;5.00;;;;;;;;114807;1208;26475;-60
2023/01/08 06:11:20;;;;;;;;;6.00;5.50;;;;;;;;114839;1208;25389;-59
2023/01/08 06:13:48;;;;;;;;;8.00;5.00;;;;;;;;114789;1200;25553;-59
2023/01/08 06:16:17;;;;;;;;;4.00;4.00;;;;;;;;114833;1200;24932;-59
2023/01/08 06:18:46;;;;;;;;;4.00;4.00;;;;;;;;114821;1200;24996;-59
2023/01/08 06:21:14;;;;;;;;;5.00;4.00;;;;;;;;114874;1206;25366;-59
2023/01/08 06:23:43;;;;;;;;;4.00;4.00;;;;;;;;114741;1208;25303;-60
2023/01/08 06:26:11;;;;;;;;;5.00;4.00;;;;;;;;114825;1200;25288;-60
2023/01/08 06:28:40;;;;;;;;;5.67;5.00;;;;;;;;114776;1208;25664;-60
2023/01/08 06:31:08;;;;;;;;;8.00;7.00;;;;;;;;114811;1199;24889;-59
2023/01/08 06:33:37;;;;;;;;;3.50;3.00;;;;;;;;114830;1200;25056;-59
2023/01/08 06:36:06;;;;;;;;;4.00;4.00;;;;;;;;114805;1206;24781;-59
2023/01/08 06:38:35;;;;;;;;;6.00;5.00;;;;;;;;114803;1200;25511;-60
2023/01/08 06:41:05;;;;;;;;;7.00;6.00;;;;;;;;114739;1200;24759;-59
2023/01/08 06:43:34;;;;;;;;;6.00;6.00;;;;;;;;114842;1208;25466;-59
2023/01/08 06:46:05;;;;;;;;;6.50;5.00;;;;;;;;114731;1208;25665;-59
2023/01/08 06:48:34;;;;;;;;;7.00;5.00;;;;;;;;114729;1201;24725;-59
2023/01/08 06:51:03;;;;;;;;;6.00;6.00;;;;;;;;114783;1201;25216;-59
2023/01/08 06:53:32;;;;;;;;;4.00;4.00;;;;;;;;114767;1198;24807;-59
2023/01/08 06:56:02;;;;;;;;;5.00;5.00;;;;;;;;114779;1200;25400;-60
2023/01/08 06:58:30;;;;;;;;;4.00;4.00;;;;;;;;114727;1202;25432;-60
2023/01/08 07:00:59;;;;;;;;;5.67;4.00;;;;;;;;114781;1208;25563;-60
2023/01/08 07:03:28;;;;;;;;;4.00;4.00;;;;;;;;114786;1205;25016;-60
2023/01/08 07:05:56;;;;;;;;;9.25;5.00;;;;;;;;114740;1209;25430;-60
2023/01/08 07:08:25;;;;;;;;;4.00;4.00;;;;;;;;114835;1200;24947;-60
2023/01/08 07:10:54;;;;;;;;;6.00;4.00;;;;;;;;114827;1206;25871;-61
2023/01/08 07:13:23;;;;;;;;;6.50;4.50;;;;;;;;114790;1206;25298;-60
2023/01/08 07:15:51;;;;;;;;;3.00;3.00;;;;;;;;114781;1204;25113;-60
2023/01/08 07:18:20;;;;;;;;;6.00;5.00;;;;;;;;114793;1206;24863;-63
2023/01/08 07:20:48;;;;;;;;;7.50;5.00;;;;;;;;114838;1203;24998;-60
2023/01/08 07:23:17;;;;;;;;;4.50;4.50;;;;;;;;114801;1197;25329;-60
2023/01/08 07:25:46;;;;;;;;;8.00;7.50;;;;;;;;114825;1200;25893;-60
2023/01/08 07:28:14;;;;;;;;;4.50;4.50;;;;;;;;114790;1205;25464;-60
2023/01/08 07:30:43;;;;;;;;;5.00;5.00;;;;;;;;114830;1200;25047;-60
2023/01/08 07:33:12;;;;;;;;;5.00;5.00;;;;;;;;114805;1209;25458;-60
2023/01/08 07:35:40;;;;;;;;;4.50;4.00;;;;;;;;114800;1209;25028;-60
2023/01/08 07:38:09;;;;;;;;;8.00;7.00;;;;;;;;114820;1200;25581;-60
2023/01/08 07:40:37;;;;;;;;;5.00;5.00;;;;;;;;114727;1203;25495;-60
2023/01/08 07:43:07;;;;;;;;;7.00;5.50;;;;;;;;114736;1206;24865;-60
2023/01/08 07:45:36;;;;;;;;;3.00;3.00;;;;;;;;114802;1206;25463;-60
2023/01/08 07:48:05;;;;;;;;;5.00;4.00;;;;;;;;114739;1208;24728;-60
2023/01/08 07:50:33;;;;;;;;;4.67;2.00;;;;;;;;114837;1205;24913;-60
2023/01/08 07:53:02;;;;;;;;;8.00;7.00;;;;;;;;114834;1208;25145;-62
2023/01/08 07:55:30;;;;;;;;;5.00;3.50;;;;;;;;114813;1197;24888;-64
2023/01/08 07:57:59;;;;;;;;;7.00;6.00;;;;;;;;114755;1200;26096;-65
2023/01/08 08:00:27;;;;;;;;;4.50;3.50;;;;;;;;114753;1197;25216;-60
2023/01/08 08:03:01;;;;;;;;;7.00;6.67;;;;;;;;114737;1200;25497;-61
2023/01/08 08:06:18;;;;;;;;;4.00;4.00;;;;;;;;116220;1199;23257;-61
2023/01/08 08:08:46;;;;;;;;;5.67;5.00;;;;;;;;117459;1187;23509;-61
2023/01/08 08:11:15;;;;;;;;;6.67;6.33;;;;;;;;117445;1184;24729;-61
2023/01/08 08:13:43;;;;;;;;;6.00;5.50;;;;;;;;117474;1195;25626;-61
2023/01/08 08:16:12;;;;;;;;;6.50;5.50;;;;;;;;117443;1195;24962;-60
2023/01/08 08:18:41;;;;;;;;;4.33;4.00;;;;;;;;117429;1184;24956;-62
2023/01/08 08:21:09;;;;;;;;;5.00;5.00;;;;;;;;117451;1184;25110;-61
2023/01/08 08:23:38;;;;;;;;;8.00;7.00;;;;;;;;117546;1181;25320;-62
2023/01/08 08:26:06;;;;;;;;;4.75;4.00;;;;;;;;117461;1194;25261;-60
2023/01/08 08:28:35;;;;;;;;;6.25;5.00;;;;;;;;117455;1180;24714;-60
2023/01/08 08:31:03;;;;;;;;;7.00;4.50;;;;;;;;117395;1184;25368;-59
2023/01/08 08:33:32;;;;;;;;;8.25;5.25;;;;;;;;117428;1193;25195;-59
2023/01/08 08:36:01;;;;;;;;;5.33;5.00;;;;;;;;117421;1194;25471;-59
2023/01/08 08:38:29;;;;;;;;;8.67;6.00;;;;;;;;117415;1194;25164;-60
2023/01/08 08:40:58;;;;;;;;;6.50;6.00;;;;;;;;117414;1187;26304;-66
2023/01/08 08:43:26;;;;;;;;;6.00;4.50;;;;;;;;117403;1194;25649;-60
2023/01/08 08:45:55;;;;;;;;;6.00;5.00;;;;;;;;117390;1184;25089;-61
2023/01/08 08:48:25;;;;;;;;;7.50;6.25;;;;;;;;117430;1181;25523;-61
2023/01/08 08:50:54;;;;;;;;;10.50;6.00;;;;;;;;117435;1184;24734;-63
2023/01/08 08:53:22;;;;;;;;;5.00;5.00;;;;;;;;117494;1181;25643;-62
2023/01/08 08:55:54;;;;;;;;;6.00;4.33;;;;;;;;117491;1194;25486;-61
2023/01/08 08:58:22;;;;;;;;;6.00;6.00;;;;;;;;117466;1183;25726;-64
2023/01/08 09:00:51;;;;;;;;;6.00;5.50;;;;;;;;117522;1193;25215;-62
2023/01/08 09:03:19;;;;;;;;;8.00;6.67;;;;;;;;117445;1181;25501;-63
2023/01/08 09:05:48;;;;;;;;;6.50;6.50;;;;;;;;117462;1184;24777;-61
2023/01/08 09:08:16;;;;;;;;;8.33;7.00;;;;;;;;117512;1181;24916;-72
2023/01/08 09:10:45;;;;;;;;;8.00;7.67;;;;;;;;117469;1183;24985;-61
2023/01/08 09:13:13;;;;;;;;;8.67;8.00;;;;;;;;117542;1184;25465;-62
2023/01/08 09:15:42;;;;;;;;;10.67;8.00;;;;;;;;117390;1183;25146;-61
2023/01/08 09:18:10;;;;;;;;;8.67;7.33;;;;;;;;117489;1193;25258;-61
2023/01/08 09:20:39;;;;;;;;;9.33;6.33;;;;;;;;117519;1194;25222;-61
2023/01/08 09:23:08;;;;;;;;;11.00;6.75;;;;;;;;117436;1184;25445;-65
2023/01/08 09:25:37;;;;;;;;;9.00;6.00;;;;;;;;117357;1184;25452;-61
2023/01/08 09:28:08;;;;;;;;;9.00;6.00;;;;;;;;117451;1182;25400;-62
2023/01/08 09:30:38;;;;;;;;;7.33;7.33;;;;;;;;117410;1184;24985;-63
2023/01/08 09:33:06;;;;;;;;;8.00;7.00;;;;;;;;117357;1184;24719;-62
2023/01/08 09:35:34;;;;;;;;;5.50;4.00;;;;;;;;117434;1184;25680;-62
2023/01/08 09:38:03;;;;;;;;;10.33;8.00;;;;;;;;117410;1183;25693;-62
2023/01/08 09:40:37;;;;;;;;;3.00;1.00;;;;;;;;117429;1182;24820;-63
2023/01/08 09:43:07;;;;;;;;;7.00;5.00;;;;;;;;117330;1183;25550;-61
2023/01/08 09:45:37;;;;;;;;;9.00;8.00;;;;;;;;117475;1187;25503;-65
2023/01/08 09:48:11;;;;;;;;;11.00;8.25;;;;;;;;117491;1183;25296;-61
2023/01/08 09:50:40;;;;;;;;;8.25;7.00;;;;;;;;117454;1193;25610;-58
2023/01/08 09:53:14;;;;;;;;;6.00;5.00;;;;;;;;117377;1183;24683;-61
2023/01/08 09:55:53;;;;;;;;;7.25;7.25;;;;;;;;117423;1181;24974;-61
2023/01/08 09:58:49;;;;;;;;;7.50;7.00;;;;;;;;117439;1180;25640;-61
2023/01/08 10:01:22;;;;;;;;;8.50;7.50;;;;;;;;117479;1180;25593;-60
2023/01/08 10:03:56;;;;;;;;;7.00;6.75;;;;;;;;117426;1183;25094;-63
2023/01/08 10:06:24;;;;;;;;;5.00;5.00;;;;;;;;117454;1183;25461;-59
2023/01/08 10:08:53;;;;;;;;;9.67;8.00;;;;;;;;117434;1184;25897;-60
2023/01/08 10:11:23;;;;;;;;;7.00;6.00;;;;;;;;117423;1182;25021;-62
2023/01/08 10:13:53;;;;;;;;;11.00;6.67;;;;;;;;117447;1183;25328;-59
2023/01/08 10:16:32;;;;;;;;;5.50;3.75;;;;;;;;117552;1180;24693;-62
2023/01/08 10:19:02;;;;;;;;;6.00;5.00;;;;;;;;117425;1182;25558;-59
2023/01/08 10:21:35;;;;;;;;;7.00;6.00;;;;;;;;117457;1182;24659;-59
2023/01/08 10:24:04;;;;;;;;;8.00;7.00;;;;;;;;117409;1191;25448;-60
2023/01/08 10:26:37;;;;;;;;;7.00;6.00;;;;;;;;117500;1182;24804;-59
2023/01/08 10:29:12;;;;;;;;;8.00;6.50;;;;;;;;117522;1190;25369;-62
2023/01/08 10:31:52;;;;;;;;;9.00;7.00;;;;;;;;117520;1182;24922;-64
2023/01/08 10:34:29;;;;;;;;;8.00;5.00;;;;;;;;117484;1186;24846;-64
2023/01/08 10:36:59;;;;;;;;;6.00;4.67;;;;;;;;117497;1183;25124;-65
2023/01/08 10:39:29;;;;;;;;;11.25;8.00;;;;;;;;117505;1183;25614;-64
2023/01/08 10:42:04;;;;;;;;;4.67;4.67;;;;;;;;117508;1193;25236;-64
2023/01/08 10:44:32;;;;;;;;;7.00;7.00;;;;;;;;117485;1183;24885;-63
2023/01/08 10:47:02;;;;;;;;;10.00;8.25;;;;;;;;117490;1187;25488;-63
2023/01/08 10:49:36;;;;;;;;;7.67;7.00;;;;;;;;117456;1181;25254;-64
2023/01/08 10:52:18;;;;;;;;;5.50;5.50;;;;;;;;117513;1180;25406;-64
2023/01/08 10:54:46;;;;;;;;;8.00;5.75;;;;;;;;117465;1193;25118;-70
2023/01/08 10:57:29;;;;;;;;;4.50;3.00;;;;;;;;117578;1181;25198;-66
2023/01/08 10:59:58;;;;;;;;;6.75;6.25;;;;;;;;117510;1182;25232;-63
2023/01/08 11:02:34;;;;;;;;;8.00;6.00;;;;;;;;117478;1193;24699;-64
2023/01/08 11:05:10;;;;;;;;;7.33;5.00;;;;;;;;117446;1193;25422;-63
2023/01/08 11:07:39;;;;;;;;;5.50;3.50;;;;;;;;117495;1190;25143;-63
2023/01/08 11:10:22;;;;;;;;;9.00;5.33;;;;;;;;117499;1182;24842;-63
2023/01/08 11:13:13;;;;;;;;;9.00;7.50;;;;;;;;118095;1177;25372;-63
2023/01/08 11:15:43;;;;;;;;;6.00;6.00;;;;;;;;118044;1190;25401;-63
2023/01/08 11:18:22;;;;;;;;;5.00;5.00;;;;;;;;118106;1177;25125;-62
2023/01/08 11:20:52;;;;;;;;;7.00;5.00;;;;;;;;118034;1177;24983;-68
2023/01/08 11:23:23;;;;;;;;;6.00;5.00;;;;;;;;118007;1189;25585;-68
2023/01/08 11:26:10;;;;;;;;;7.00;6.00;;;;;;;;118082;1177;25338;-67
2023/01/08 11:28:59;;;;;;;;;5.50;5.50;;;;;;;;118013;1177;25926;-68
2023/01/08 11:31:30;;;;;;;;;6.25;6.25;;;;;;;;117996;1179;25274;-68
2023/01/08 11:34:06;;;;;;;;;7.00;4.75;;;;;;;;117989;1180;24869;-68
2023/01/08 11:36:46;;;;;;;;;7.75;4.25;;;;;;;;117991;1180;24974;-67
2023/01/08 11:39:16;;;;;;;;;7.00;5.00;;;;;;;;118056;1177;25458;-68
2023/01/08 11:42:03;;;;;;;;;7.50;6.00;;;;;;;;117894;1179;24836;-66
2023/01/08 11:44:37;;;;;;;;;6.50;5.00;;;;;;;;118010;1178;25224;-67
2023/01/08 11:47:40;;;;;;;;;7.50;5.00;;;;;;;;118040;1177;25096;-60
2023/01/08 11:54:14;;;;;;;;;4.67;2.67;;;;;;;;116028;1196;23360;-64
2023/01/08 11:56:52;;;;;;;;;6.50;3.00;;;;;;;;117036;1196;25585;-59
2023/01/08 11:59:47;;;;;;;;;7.00;6.00;;;;;;;;117077;1197;25008;-60
2023/01/08 12:02:26;;;;;;;;;11.00;7.00;;;;;;;;117064;1192;25329;-61
2023/01/08 12:05:13;;;;;;;;;5.00;4.00;;;;;;;;117093;1187;25077;-61
2023/01/08 12:08:10;;;;;;;;;4.25;4.25;;;;;;;;117089;1197;25244;-61
2023/01/08 12:10:48;;;;;;;;;11.25;6.00;;;;;;;;117047;1197;25160;-60
2023/01/08 12:13:17;;;;;;;;;11.00;6.50;;;;;;;;117090;1184;24964;-59
2023/01/08 12:16:01;;;;;;;;;9.25;7.25;;;;;;;;117162;1187;25625;-60
2023/01/08 12:18:51;;;;;;;;;5.33;4.67;;;;;;;;117075;1185;25050;-59
2023/01/08 12:21:33;;;;;;;;;13.33;13.00;;;;;;;;117047;1187;25509;-59
2023/01/08 12:24:08;;;;;;;;;14.33;9.67;;;;;;;;117073;1186;25319;-63
2023/01/08 12:26:48;;;;;;;;;11.33;10.67;;;;;;;;117411;1180;24835;-61
2023/01/08 12:29:35;;;;;;;;;12.00;8.25;;;;;;;;117444;1194;24878;-61
2023/01/08 12:32:18;;;;;;;;;11.33;8.33;;;;;;;;117371;1183;25640;-61
2023/01/08 12:34:49;;;;;;;;;10.33;9.00;;;;;;;;117426;1184;25229;-61
2023/01/08 12:37:26;;;;;;;;;7.33;5.00;;;;;;;;117446;1186;24810;-62
2023/01/08 12:40:02;;;;;;;;;8.00;8.00;;;;;;;;117402;1194;24819;-61
2023/01/08 12:42:31;;;;;;;;;7.67;6.67;;;;;;;;117450;1180;25182;-64
2023/01/08 12:45:02;;;;;;;;;10.67;8.00;;;;;;;;117401;1181;24947;-61
2023/01/08 12:47:34;;;;;;;;;9.33;9.33;;;;;;;;117361;1183;25152;-62
2023/01/08 12:50:16;;;;;;;;;9.00;8.75;;;;;;;;117424;1187;25614;-62
2023/01/08 12:52:55;;;;;;;;;9.33;8.00;;;;;;;;117451;1180;24681;-62
2023/01/08 12:55:43;;;;;;;;;8.00;8.00;;;;;;;;117380;1193;25643;-58
2023/01/08 12:58:30;;;;;;;;;9.50;8.50;;;;;;;;117419;1183;25403;-61
2023/01/08 13:01:10;;;;;;;;;17.00;10.00;;;;;;;;117385;1192;25288;-60
2023/01/08 13:03:39;;;;;;;;;10.00;8.00;;;;;;;;117437;1186;24964;-61
2023/01/08 13:06:12;;;;;;;;;9.00;9.00;;;;;;;;117452;1183;24755;-61
2023/01/08 13:08:44;;;;;;;;;7.00;7.00;;;;;;;;117390;1180;25399;-60
2023/01/08 13:11:24;;;;;;;;;9.75;8.25;;;;;;;;117417;1186;25090;-61
2023/01/08 13:14:00;;;;;;;;;8.50;7.50;;;;;;;;117454;1180;25203;-61
2023/01/08 13:16:33;;;;;;;;;10.00;8.00;;;;;;;;117398;1184;25156;-61
2023/01/08 13:19:03;;;;;;;;;8.33;6.00;;;;;;;;117381;1182;25338;-62
2023/01/08 13:21:42;;;;;;;;;9.00;6.67;;;;;;;;117419;1184;25038;-62
2023/01/08 13:24:47;;;;;;;;;8.00;8.00;;;;;;;;117430;1187;25021;-61
2023/01/08 13:27:15;;;;;;;;;7.00;7.00;;;;;;;;117481;1193;24881;-61
2023/01/08 13:29:51;;;;;;;;;9.67;7.00;;;;;;;;117424;1180;25402;-61
2023/01/08 13:32:24;;;;;;;;;10.50;8.00;;;;;;;;117383;1180;25553;-61
2023/01/08 13:35:20;;;;;;;;;8.33;7.00;;;;;;;;117426;1186;25048;-61
2023/01/08 13:37:51;;;;;;;;;8.33;7.33;;;;;;;;117405;1180;25353;-61
2023/01/08 13:40:49;;;;;;;;;7.00;5.50;;;;;;;;117432;1184;25010;-61
2023/01/08 13:43:27;;;;;;;;;10.00;7.00;;;;;;;;117452;1189;25154;-62
2023/01/08 13:45:59;;;;;;;;;9.50;6.50;;;;;;;;117394;1180;25028;-64
2023/01/08 13:48:39;;;;;;;;;8.00;6.00;;;;;;;;117471;1182;25056;-61
2023/01/08 13:51:37;;;;;;;;;12.00;8.00;;;;;;;;117521;1180;25647;-68
2023/01/08 13:54:22;;;;;;;;;9.00;6.67;;;;;;;;117379;1181;25012;-62
2023/01/08 13:56:53;;;;;;;;;7.00;6.00;;;;;;;;117390;1180;24823;-62
2023/01/08 13:59:38;;;;;;;;;7.75;6.75;;;;;;;;117407;1186;25002;-61
2023/01/08 14:02:49;;;;;;;;;11.00;9.50;;;;;;;;117448;1190;24889;-61
2023/01/08 14:05:24;;;;;;;;;8.00;6.00;;;;;;;;117439;1184;26151;-60
2023/01/08 14:07:53;;;;;;;;;6.00;4.00;;;;;;;;117448;1180;24738;-61
2023/01/08 14:10:22;;;;;;;;;9.67;7.00;;;;;;;;117427;1183;25352;-61
2023/01/08 14:12:51;;;;;;;;;7.67;6.00;;;;;;;;117440;1182;26492;-61
2023/01/08 14:15:25;;;;;;;;;8.00;5.00;;;;;;;;117447;1194;25477;-60
2023/01/08 14:17:55;;;;;;;;;7.67;5.00;;;;;;;;117402;1186;25193;-62
2023/01/08 14:20:35;;;;;;;;;5.25;2.75;;;;;;;;117392;1190;25296;-60
2023/01/08 14:23:18;;;;;;;;;8.33;7.67;;;;;;;;117419;1189;25070;-60
2023/01/08 14:25:48;;;;;;;;;6.50;5.50;;;;;;;;117439;1183;25383;-61
2023/01/08 14:28:19;;;;;;;;;8.00;6.00;;;;;;;;117447;1193;25196;-61
2023/01/08 14:30:49;;;;;;;;;7.67;7.33;;;;;;;;117486;1181;25344;-62
2023/01/08 14:33:21;;;;;;;;;7.00;6.00;;;;;;;;117470;1194;25231;-62
2023/01/08 14:35:51;;;;;;;;;7.67;5.33;;;;;;;;117577;1180;25330;-60
2023/01/08 14:38:19;;;;;;;;;4.50;4.50;;;;;;;;117423;1184;25310;-64
2023/01/08 14:41:00;;;;;;;;;15.00;14.00;;;;;;;;117515;1182;24980;-61
2023/01/08 14:43:32;;;;;;;;;26.00;26.00;;;;;;;;117441;1183;25153;-63
2023/01/08 14:46:02;;;;;;;;;33.00;29.50;;;;;;;;117411;1194;25073;-61
2023/01/08 14:48:40;;;;;;;;;32.00;28.00;;;;;;;;117373;1181;25511;-62
2023/01/08 14:51:12;;;;;;;;;25.25;23.00;;;;;;;;117431;1180;24719;-61
2023/01/08 14:53:49;;;;;;;;;29.00;24.00;;;;;;;;117485;1193;24676;-67
2023/01/08 14:56:21;;;;;;;;;13.75;12.25;;;;;;;;117454;1193;24864;-70
2023/01/08 14:58:50;;;;;;;;;24.50;21.50;;;;;;;;117416;1193;25596;-61
2023/01/08 15:01:24;;;;;;;;;24.00;19.00;;;;;;;;117478;1180;25415;-60